Time;durP1;ratioP1;P1;durP2;ratioP2;P2;SDS_P1;SDS_P2;PMS_P1;PMS_P2;Temp;Humidity;BMP_temperature;BMP_pressure;BME280_temperature;BME280_humidity;BME280_pressure;Samples;Min_cycle;Max_cycle;Signal;HPM_P1;HPM_P2
2023/03/22 00:02:03;;;;;;;16.08;9.93;;;;;;;6.14;58.96;100760.13;5051339;28;20265;-67
2023/03/22 00:04:35;;;;;;;20.40;10.27;;;;;;;6.35;57.86;100754.47;5045241;28;20044;-68
2023/03/22 00:07:01;;;;;;;15.50;10.15;;;;;;;6.45;58.24;100761.13;5055535;28;20040;-69
2023/03/22 00:09:26;;;;;;;16.60;9.10;;;;;;;6.61;57.63;100751.19;5037588;28;20118;-69
2023/03/22 00:12:15;;;;;;;15.65;9.68;;;;;;;6.39;58.08;100752.63;5055698;28;20035;-71
2023/03/22 00:14:48;;;;;;;;;;;;;;;6.66;57.45;100740.69;5053898;28;20545;-71
2023/03/22 00:17:31;;;;;;;15.23;9.02;;;;;;;6.63;57.76;100743.38;5056558;28;19927;-70
2023/03/22 00:19:57;;;;;;;19.10;10.38;;;;;;;7.03;56.57;100744.91;5053119;28;20054;-71
2023/03/22 00:22:25;;;;;;;20.05;8.68;;;;;;;6.86;57.00;100735.84;5044243;28;20498;-73
2023/03/22 00:24:59;;;;;;;16.35;8.52;;;;;;;6.94;56.32;100734.78;5045248;28;20032;-72
2023/03/22 00:27:27;;;;;;;15.48;8.63;;;;;;;7.14;56.27;100732.47;5053905;28;20050;-71
2023/03/22 00:29:55;;;;;;;14.85;7.78;;;;;;;7.16;55.86;100735.06;5043068;28;21840;-71
2023/03/22 00:32:20;;;;;;;14.45;8.60;;;;;;;7.11;56.45;100732.59;5054846;28;20067;-70
2023/03/22 00:34:53;;;;;;;16.08;7.93;;;;;;;7.05;56.32;100730.16;5040751;28;20032;-69
2023/03/22 00:37:19;;;;;;;17.65;8.23;;;;;;;6.95;56.75;100726.94;5040216;28;20513;-71
2023/03/22 00:39:47;;;;;;;9.68;7.45;;;;;;;7.22;56.38;100721.84;5036825;28;20039;-71
2023/03/22 00:42:12;;;;;;;17.08;7.95;;;;;;;7.42;55.61;100719.56;5034341;28;20263;-70
2023/03/22 00:44:38;;;;;;;14.80;6.93;;;;;;;7.29;55.96;100716.47;5038417;28;20036;-70
2023/03/22 00:47:07;;;;;;;15.85;8.35;;;;;;;7.10;56.58;100712.66;5031396;28;20028;-71
2023/03/22 00:49:36;;;;;;;14.15;6.72;;;;;;;6.89;56.89;100717.56;5055168;28;20024;-70
2023/03/22 00:52:04;;;;;;;13.48;7.15;;;;;;;6.62;57.88;100715.69;5032719;28;20038;-70
2023/03/22 00:54:29;;;;;;;13.73;6.32;;;;;;;6.83;57.68;100707.34;5051920;28;20036;-70
2023/03/22 00:56:57;;;;;;;19.75;7.00;;;;;;;7.15;56.85;100704.75;5053151;28;20673;-70
2023/03/22 00:59:27;;;;;;;13.88;7.35;;;;;;;7.24;56.90;100705.31;5046333;28;20446;-71
2023/03/22 01:02:03;;;;;;;15.13;6.53;;;;;;;7.05;57.30;100696.34;5055615;28;20553;-71
2023/03/22 01:04:31;;;;;;;14.73;6.95;;;;;;;7.07;57.35;100702.38;5042131;28;20055;-71
2023/03/22 01:07:02;;;;;;;15.75;7.43;;;;;;;7.22;56.95;100696.75;5041314;28;20690;-71
2023/03/22 01:09:29;;;;;;;15.60;5.82;;;;;;;6.69;58.30;100694.72;5025739;28;20043;-71
2023/03/22 01:11:57;;;;;;;8.55;5.50;;;;;;;7.56;55.61;100690.56;5041055;28;20839;-67
2023/03/22 01:14:30;;;;;;;15.23;6.22;;;;;;;7.21;56.27;100691.56;5046457;28;20040;-63
2023/03/22 01:16:56;;;;;;;12.38;5.45;;;;;;;7.26;56.38;100687.94;5058333;28;20271;-68
2023/03/22 01:19:31;;;;;;;10.02;5.75;;;;;;;7.61;55.28;100686.06;5042140;28;20075;-78
2023/03/22 01:22:03;;;;;;;12.30;5.03;;;;;;;7.36;56.01;100692.88;5036278;28;20357;-74
2023/03/22 01:24:31;;;;;;;13.15;4.97;;;;;;;7.67;54.98;100685.88;5024036;28;20401;-75
2023/03/22 01:26:59;;;;;;;17.33;5.78;;;;;;;7.65;55.22;100685.09;5052237;28;20051;-77
2023/03/22 01:29:28;;;;;;;14.35;5.07;;;;;;;7.51;55.34;100682.88;5022505;28;20041;-77
2023/03/22 01:31:55;;;;;;;8.98;4.85;;;;;;;7.30;56.04;100679.16;5035109;28;20068;-75
2023/03/22 01:34:21;;;;;;;10.48;4.18;;;;;;;7.43;55.24;100677.03;5028089;28;20051;-75
2023/03/22 01:36:46;;;;;;;9.25;5.05;;;;;;;7.75;54.80;100670.03;5032625;28;20636;-75
2023/03/22 01:39:15;;;;;;;15.45;4.95;;;;;;;7.88;54.27;100670.50;5006772;28;20414;-73
2023/03/22 01:41:45;;;;;;;7.53;4.40;;;;;;;7.12;55.94;100666.69;5024972;28;20032;-73
2023/03/22 01:44:22;;;;;;;10.60;5.25;;;;;;;7.14;56.25;100658.88;5023173;28;20327;-73
2023/03/22 01:46:52;;;;;;;9.38;5.10;;;;;;;7.00;56.81;100660.13;5040776;28;20394;-73
2023/03/22 01:49:28;;;;;;;11.77;3.67;;;;;;;7.27;56.03;100655.84;5009969;28;20044;-73
2023/03/22 01:51:58;;;;;;;7.03;4.28;;;;;;;7.37;55.46;100652.97;5051648;28;20055;-74
2023/03/22 01:54:52;;;;;;;13.07;4.82;;;;;;;7.57;55.33;100644.59;5048890;28;20135;-73
2023/03/22 01:57:37;;;;;;;7.65;4.28;;;;;;;7.51;55.17;100648.19;5034095;28;20052;-73
2023/03/22 02:00:17;;;;;;;10.10;5.28;;;;;;;7.39;55.92;100646.81;5033369;28;20405;-73
2023/03/22 02:03:07;;;;;;;8.63;4.43;;;;;;;7.76;54.78;100640.53;5040654;28;21113;-73
2023/03/22 02:05:39;;;;;;;10.77;5.70;;;;;;;7.45;55.63;100643.19;5038991;28;20064;-72
2023/03/22 02:08:09;;;;;;;8.57;5.68;;;;;;;7.25;55.89;100639.44;5010153;28;20036;-73
2023/03/22 02:11:15;;;;;;;11.45;5.18;;;;;;;7.70;54.95;100630.31;5047360;28;20067;-73
2023/03/22 02:13:41;;;;;;;13.75;6.05;;;;;;;7.41;55.64;100629.44;5037818;28;20041;-72
2023/03/22 02:17:12;;;;;;;12.13;5.72;;;;;;;7.29;55.80;100630.66;5052656;28;20040;-71
2023/03/22 02:20:30;;;;;;;11.32;4.97;;;;;;;7.64;55.31;100639.16;5040360;28;20044;-71
2023/03/22 02:23:18;;;;;;;10.18;5.70;;;;;;;7.04;56.53;100627.06;5014605;28;20596;-71
2023/03/22 02:25:58;;;;;;;11.38;6.22;;;;;;;6.99;57.22;100637.59;5044907;28;20032;-65
2023/03/22 02:28:38;;;;;;;9.93;5.85;;;;;;;7.36;55.93;100622.69;5040809;28;20060;-65
2023/03/22 02:31:23;;;;;;;9.52;5.72;;;;;;;6.81;57.38;100620.78;5044440;28;20137;-65
2023/03/22 02:34:13;;;;;;;10.60;4.80;;;;;;;7.07;56.49;100619.22;5039846;28;20106;-66
2023/03/22 02:37:18;;;;;;;12.10;5.53;;;;;;;7.02;56.50;100613.28;5045061;28;20035;-65
2023/03/22 02:39:49;;;;;;;20.17;4.50;;;;;;;6.74;56.80;100603.69;5023734;28;20052;-67
2023/03/22 02:42:31;;;;;;;7.90;4.45;;;;;;;6.91;56.65;100606.66;5016469;28;20024;-70
2023/03/22 02:45:16;;;;;;;10.77;4.60;;;;;;;6.57;57.28;100608.50;5036179;28;20514;-69
2023/03/22 02:48:12;;;;;;;6.95;4.15;;;;;;;6.90;56.36;100604.09;5026695;28;20051;-70
2023/03/22 02:51:17;;;;;;;11.48;3.80;;;;;;;7.26;55.01;100594.34;5033926;28;20698;-69
2023/03/22 02:53:55;;;;;;;7.88;4.38;;;;;;;6.95;56.44;100596.16;5041660;28;20129;-68
2023/03/22 02:56:58;;;;;;;9.27;3.13;;;;;;;6.63;56.95;100588.41;5040061;28;20259;-67
2023/03/22 02:59:25;;;;;;;12.07;3.33;;;;;;;7.00;55.64;100594.28;5026103;28;20046;-68
2023/03/22 03:01:55;;;;;;;6.40;3.50;;;;;;;7.38;54.48;100593.13;5054131;28;20044;-67
2023/03/22 03:04:30;;;;;;;9.60;3.40;;;;;;;7.20;55.23;100594.56;5048966;28;20116;-68
2023/03/22 03:07:13;;;;;;;;;;;;;;;;;;;;;
2023/03/22 03:09:45;;;;;;;7.15;2.42;;;;;;;7.32;54.37;100583.75;5033327;28;20040;-68
2023/03/22 03:12:20;;;;;;;5.72;3.05;;;;;;;6.86;55.26;100582.56;5041018;28;20396;-69
2023/03/22 03:14:58;;;;;;;3.10;2.05;;;;;;;6.90;55.44;100578.97;5047713;28;20390;-67
2023/03/22 03:17:58;;;;;;;7.22;2.05;;;;;;;6.78;55.64;100578.47;5012565;28;20131;-67
2023/03/22 03:20:42;;;;;;;8.43;2.83;;;;;;;6.94;54.68;100581.47;5027107;28;20031;-66
2023/03/22 03:23:49;;;;;;;7.85;3.10;;;;;;;7.20;54.45;100578.97;5045570;28;20078;-67
2023/03/22 03:26:26;;;;;;;7.20;1.55;;;;;;;7.13;54.27;100569.63;5057502;28;20516;-72
2023/03/22 03:29:19;;;;;;;4.65;1.77;;;;;;;7.31;53.91;100576.88;5035634;28;20047;-69
2023/03/22 03:32:20;;;;;;;6.53;2.13;;;;;;;7.08;54.43;100579.31;5056161;28;20036;-69
2023/03/22 03:35:03;;;;;;;7.47;1.73;;;;;;;7.28;53.45;100576.94;5036997;28;20479;-70
2023/03/22 03:37:46;;;;;;;5.07;2.03;;;;;;;6.87;54.73;100573.88;5056447;28;20113;-70
2023/03/22 03:40:21;;;;;;;3.70;1.88;;;;;;;6.94;54.79;100577.13;5058703;28;20032;-69
2023/03/22 03:42:52;;;;;;;6.45;1.70;;;;;;;7.12;54.64;100576.56;5029712;28;20284;-69
2023/03/22 03:45:23;;;;;;;8.25;2.10;;;;;;;6.95;54.85;100571.03;5056794;28;20039;-70
2023/03/22 03:47:55;;;;;;;8.20;2.30;;;;;;;7.22;53.97;100577.16;5054928;28;20044;-72
2023/03/22 03:50:21;;;;;;;;;;;;;;;6.55;56.48;100577.41;5057638;28;20294;-72
2023/03/22 03:52:47;;;;;;;7.18;1.85;;;;;;;7.33;53.75;100580.28;5053639;28;21880;-68
2023/03/22 03:55:13;;;;;;;5.32;2.08;;;;;;;6.57;55.91;100575.56;5057544;28;20031;-68
2023/03/22 03:57:45;;;;;;;6.35;1.98;;;;;;;6.72;55.67;100576.06;5039036;28;20040;-68
2023/03/22 04:00:16;;;;;;;7.10;1.88;;;;;;;6.86;54.84;100577.38;5053396;28;20035;-67
2023/03/22 04:03:04;;;;;;;6.13;2.25;;;;;;;6.85;54.75;100573.06;5041448;28;20032;-69
2023/03/22 04:05:52;;;;;;;5.70;2.45;;;;;;;7.37;53.33;100569.78;5056201;28;20035;-69
2023/03/22 04:08:20;;;;;;;7.07;2.33;;;;;;;7.29;53.63;100567.44;5055581;28;20779;-69
2023/03/22 04:10:54;;;;;;;5.13;1.88;;;;;;;6.78;55.28;100565.50;5040955;28;20028;-68
2023/03/22 04:13:33;;;;;;;;;;;;;;;;;;;;;
2023/03/22 04:16:07;;;;;;;12.80;1.90;;;;;;;6.77;55.12;100559.44;5040597;28;20058;-70
2023/03/22 04:18:35;;;;;;;10.13;1.83;;;;;;;6.86;54.99;100559.19;5034485;28;20056;-67
2023/03/22 04:21:05;;;;;;;4.22;1.55;;;;;;;6.90;55.13;100560.78;5039493;28;20212;-74
2023/03/22 04:23:45;;;;;;;4.43;1.30;;;;;;;7.47;53.50;100560.78;5041341;28;20036;-74
2023/03/22 04:26:23;;;;;;;10.85;2.58;;;;;;;7.12;54.13;100560.13;5041563;28;20383;-74
2023/03/22 04:29:02;;;;;;;5.93;1.90;;;;;;;6.87;55.03;100555.69;5055519;28;20886;-70
2023/03/22 04:31:35;;;;;;;7.93;2.25;;;;;;;6.85;54.96;100554.88;5044935;28;20082;-70
2023/03/22 04:34:12;;;;;;;6.43;2.25;;;;;;;6.85;55.12;100549.66;5032138;28;20043;-70
2023/03/22 04:37:11;;;;;;;6.05;1.55;;;;;;;6.91;54.78;100551.25;5042023;28;20739;-69
2023/03/22 04:40:07;;;;;;;6.03;1.42;;;;;;;7.22;54.24;100545.97;5043993;28;20044;-69
2023/03/22 04:42:57;;;;;;;6.05;1.55;;;;;;;7.13;54.46;100541.03;5055451;28;20109;-76
2023/03/22 04:45:51;;;;;;;7.57;2.47;;;;;;;7.29;53.78;100544.03;5029721;28;20072;-71
2023/03/22 04:48:23;;;;;;;3.45;1.42;;;;;;;7.04;54.54;100541.31;5041443;28;20253;-68
2023/03/22 04:50:56;;;;;;;8.38;1.20;;;;;;;6.88;55.05;100531.38;5040290;28;20040;-68
2023/03/22 04:53:26;;;;;;;5.72;1.50;;;;;;;7.30;53.89;100543.97;5036731;28;20444;-68
2023/03/22 04:56:04;;;;;;;4.40;1.60;;;;;;;7.49;53.50;100541.63;5045778;28;20107;-71
2023/03/22 04:58:30;;;;;;;7.05;0.93;;;;;;;7.49;53.30;100546.00;5010394;28;20595;-70
2023/03/22 05:00:58;;;;;;;3.60;1.10;;;;;;;7.26;54.01;100541.50;5055296;28;20751;-71
2023/03/22 05:03:26;;;;;;;8.40;1.42;;;;;;;7.34;53.71;100547.31;5052473;28;20029;-71
2023/03/22 05:05:56;;;;;;;6.28;1.10;;;;;;;7.45;53.64;100542.63;5038041;28;20047;-70
2023/03/22 05:08:30;;;;;;;10.68;1.30;;;;;;;7.14;54.68;100541.91;5028504;28;20437;-71
2023/03/22 05:11:04;;;;;;;6.93;0.98;;;;;;;7.05;54.85;100537.84;5041423;28;20283;-71
2023/03/22 05:13:33;;;;;;;7.13;1.67;;;;;;;7.28;53.84;100527.56;5013411;28;20049;-66
2023/03/22 05:16:03;;;;;;;10.77;1.30;;;;;;;7.15;54.73;100521.03;5034562;28;20044;-69
2023/03/22 05:18:44;;;;;;;8.05;1.40;;;;;;;7.51;53.54;100524.25;5041296;28;20032;-71
2023/03/22 05:21:20;;;;;;;7.07;1.98;;;;;;;7.53;53.40;100508.56;5054001;28;20033;-70
2023/03/22 05:23:49;;;;;;;9.50;1.60;;;;;;;7.43;53.68;100515.81;5041950;28;20053;-66
2023/03/22 05:26:15;;;;;;;4.55;1.25;;;;;;;7.50;53.40;100509.53;5033085;28;20045;-70
2023/03/22 05:28:47;;;;;;;5.53;1.30;;;;;;;7.63;53.22;100504.78;5042039;28;20075;-70
2023/03/22 05:31:27;;;;;;;4.78;2.28;;;;;;;7.64;52.92;100501.28;5034360;28;20548;-73
2023/03/22 05:33:57;;;;;;;11.45;2.17;;;;;;;7.82;52.04;100491.16;5043821;28;20123;-75
2023/03/22 05:36:28;;;;;;;9.85;2.35;;;;;;;7.53;53.02;100487.75;5029895;28;20040;-69
2023/03/22 05:39:19;;;;;;;3.83;1.63;;;;;;;7.21;53.74;100486.22;5032508;28;20090;-70
2023/03/22 05:41:50;;;;;;;4.57;1.98;;;;;;;7.10;54.09;100489.16;5039452;28;20079;-69
2023/03/22 05:44:15;;;;;;;5.47;1.58;;;;;;;7.17;53.91;100477.66;5031449;28;20040;-65
2023/03/22 05:46:50;;;;;;;5.75;1.65;;;;;;;7.07;54.15;100479.72;5032330;28;20489;-70
2023/03/22 05:49:26;;;;;;;6.43;2.63;;;;;;;7.00;54.45;100472.16;5009860;28;20036;-73
2023/03/22 05:51:56;;;;;;;5.97;1.50;;;;;;;6.62;55.83;100467.25;5040698;28;20085;-72
2023/03/22 05:54:31;;;;;;;8.95;1.70;;;;;;;7.31;53.64;100467.69;5038693;28;20235;-73
2023/03/22 05:57:01;;;;;;;6.10;2.15;;;;;;;7.29;53.83;100453.88;5040089;28;20047;-72
2023/03/22 05:59:30;;;;;;;10.02;1.58;;;;;;;7.18;54.23;100461.19;5056326;28;20131;-80
2023/03/22 06:02:04;;;;;;;12.35;2.05;;;;;;;7.04;54.37;100466.84;5057503;28;20048;-75
2023/03/22 06:04:32;;;;;;;7.72;2.17;;;;;;;6.84;55.15;100469.19;5026654;28;20501;-74
2023/03/22 06:07:26;;;;;;;7.82;2.80;;;;;;;6.55;55.88;100462.28;5004212;28;20046;-74
2023/03/22 06:10:00;;;;;;;9.15;3.05;;;;;;;6.95;55.11;100463.66;5036264;28;20027;-73
2023/03/22 06:12:30;;;;;;;5.13;2.17;;;;;;;7.19;54.49;100452.47;5034828;28;20409;-69
2023/03/22 06:15:07;;;;;;;7.57;2.97;;;;;;;7.25;54.29;100460.06;5037939;28;20043;-67
2023/03/22 06:17:36;;;;;;;11.40;3.05;;;;;;;7.25;54.36;100457.47;5050403;28;20035;-68
2023/03/22 06:20:18;;;;;;;7.15;3.38;;;;;;;7.25;54.74;100461.84;5054377;28;20273;-68
2023/03/22 06:22:52;;;;;;;14.70;3.22;;;;;;;7.33;54.46;100458.09;5040375;28;20527;-68
2023/03/22 06:25:28;;;;;;;8.77;3.35;;;;;;;7.33;54.45;100454.63;5049794;28;20355;-68
2023/03/22 06:27:56;;;;;;;7.68;3.20;;;;;;;7.28;55.01;100453.94;5054678;28;20047;-66
2023/03/22 06:30:22;;;;;;;10.00;3.35;;;;;;;7.31;54.50;100452.09;5036789;28;20036;-69
2023/03/22 06:33:13;;;;;;;8.38;4.40;;;;;;;6.70;56.68;100441.03;5037594;28;20566;-69
2023/03/22 06:36:04;;;;;;;9.82;4.43;;;;;;;7.31;55.08;100452.09;5033794;28;20032;-69
2023/03/22 06:38:51;;;;;;;17.02;5.75;;;;;;;7.61;54.66;100438.13;5047397;28;20476;-69
2023/03/22 06:41:19;;;;;;;11.52;4.38;;;;;;;7.64;54.17;100438.84;5053904;28;20043;-68
2023/03/22 06:43:56;;;;;;;9.90;5.60;;;;;;;6.75;56.82;100444.34;5036294;28;20045;-68
2023/03/22 06:46:47;;;;;;;9.65;4.95;;;;;;;7.35;55.83;100420.78;5028526;28;20511;-68
2023/03/22 06:49:25;;;;;;;7.00;4.40;;;;;;;7.71;54.55;100424.75;5041190;28;20111;-68
2023/03/22 06:51:53;;;;;;;13.05;4.63;;;;;;;7.41;55.63;100430.97;5033277;28;22575;-68
2023/03/22 06:54:41;;;;;;;8.65;5.43;;;;;;;7.76;54.80;100428.91;5024887;28;20058;-66
2023/03/22 06:57:06;;;;;;;13.38;5.25;;;;;;;7.59;55.14;100412.16;5046378;28;20035;-67
2023/03/22 06:59:34;;;;;;;10.45;5.72;;;;;;;7.10;56.18;100419.00;5035612;28;20462;-67
2023/03/22 07:02:07;;;;;;;11.30;5.53;;;;;;;6.96;56.99;100416.84;5052245;28;20071;-66
2023/03/22 07:04:35;;;;;;;8.15;5.78;;;;;;;7.56;55.81;100420.09;5035543;28;20031;-68
2023/03/22 07:07:02;;;;;;;13.07;6.10;;;;;;;7.15;57.04;100424.88;5037734;28;20105;-68
2023/03/22 07:09:28;;;;;;;14.95;6.28;;;;;;;7.37;56.79;100429.38;5025093;28;20051;-67
2023/03/22 07:11:57;;;;;;;16.90;7.40;;;;;;;7.31;56.63;100426.09;5033457;28;20047;-66
2023/03/22 07:14:29;;;;;;;14.93;6.20;;;;;;;8.14;54.68;100427.56;5038999;28;20056;-69
2023/03/22 07:17:13;;;;;;;14.93;6.95;;;;;;;8.34;53.92;100419.00;5015898;28;20227;-69
2023/03/22 07:19:48;;;;;;;11.07;6.63;;;;;;;7.28;56.90;100415.78;5040264;28;20173;-68
2023/03/22 07:22:21;;;;;;;13.38;6.50;;;;;;;8.07;55.07;100415.66;5021999;28;20035;-68
2023/03/22 07:24:50;;;;;;;11.48;5.90;;;;;;;8.10;55.08;100408.59;5039848;28;20683;-67
2023/03/22 07:27:26;;;;;;;16.90;7.10;;;;;;;7.78;55.47;100409.78;5022642;28;20627;-67
2023/03/22 07:29:51;;;;;;;13.45;6.72;;;;;;;8.54;54.33;100407.84;5051706;28;20028;-68
2023/03/22 07:32:17;;;;;;;12.25;6.20;;;;;;;8.11;54.72;100402.50;5034485;28;20163;-68
2023/03/22 07:35:10;;;;;;;13.02;5.75;;;;;;;7.78;55.52;100414.09;5036296;28;20028;-67
2023/03/22 07:37:47;;;;;;;9.52;5.65;;;;;;;7.98;55.17;100419.47;5040287;28;20293;-67
2023/03/22 07:40:22;;;;;;;11.80;7.18;;;;;;;7.94;55.39;100415.28;5052172;28;20033;-69
2023/03/22 07:42:58;;;;;;;14.35;6.50;;;;;;;8.65;53.66;100407.38;5037279;28;20564;-69
2023/03/22 07:45:37;;;;;;;16.00;6.00;;;;;;;8.34;54.32;100408.59;5033289;28;20142;-69
2023/03/22 07:48:35;;;;;;;14.05;6.68;;;;;;;8.32;54.73;100413.84;5043114;28;20109;-69
2023/03/22 07:51:18;;;;;;;12.65;6.25;;;;;;;8.44;54.44;100399.50;5036129;28;20040;-69
2023/03/22 07:53:56;;;;;;;13.48;5.68;;;;;;;8.43;54.31;100397.81;5035149;28;20591;-67
2023/03/22 07:56:21;;;;;;;13.00;6.25;;;;;;;9.42;52.00;100386.03;5035162;28;20444;-68
2023/03/22 07:58:49;;;;;;;8.15;4.70;;;;;;;7.73;55.59;100396.06;5036437;28;20045;-67
2023/03/22 08:01:17;;;;;;;10.95;5.75;;;;;;;8.12;54.80;100388.56;5039463;28;20051;-67
2023/03/22 08:04:25;;;;;;;13.93;5.53;;;;;;;8.45;53.94;100395.13;5027507;28;20036;-67
2023/03/22 08:06:57;;;;;;;12.93;6.07;;;;;;;8.63;53.23;100393.56;5041360;28;20470;-68
2023/03/22 08:09:34;;;;;;;11.23;5.68;;;;;;;8.76;52.88;100393.06;5031779;28;20072;-68
2023/03/22 08:12:00;;;;;;;11.18;6.03;;;;;;;8.66;53.49;100385.66;5037570;28;20024;-66
2023/03/22 08:14:33;;;;;;;10.30;5.80;;;;;;;8.57;53.53;100379.03;5031937;28;20036;-67
2023/03/22 08:17:10;;;;;;;10.13;6.55;;;;;;;8.46;54.00;100391.63;5044914;28;20472;-67
2023/03/22 08:19:40;;;;;;;9.57;5.10;;;;;;;8.77;52.45;100380.88;5005587;28;20040;-68
2023/03/22 08:22:12;;;;;;;13.77;5.40;;;;;;;8.88;52.32;100378.69;5023789;28;20054;-68
2023/03/22 08:24:59;;;;;;;15.95;5.65;;;;;;;8.78;51.93;100372.16;5051988;28;20238;-67
2023/03/22 08:27:30;;;;;;;9.73;4.22;;;;;;;8.83;52.37;100380.66;5016523;28;20139;-69
2023/03/22 08:30:02;;;;;;;8.93;3.85;;;;;;;8.57;52.70;100379.88;5042659;28;20028;-67
2023/03/22 08:32:42;;;;;;;16.33;4.97;;;;;;;8.13;54.24;100390.25;5049277;28;20036;-67
2023/03/22 08:35:10;;;;;;;12.40;4.85;;;;;;;8.26;53.72;100392.41;5036279;28;20036;-66
2023/03/22 08:37:54;;;;;;;10.85;5.43;;;;;;;8.74;52.79;100402.72;5046747;28;20186;-70
2023/03/22 08:40:21;;;;;;;12.52;6.15;;;;;;;8.69;52.76;100398.53;5034081;28;20036;-69
2023/03/22 08:42:52;;;;;;;13.82;5.20;;;;;;;7.82;54.75;100395.72;5026203;28;20689;-69
2023/03/22 08:45:23;;;;;;;7.75;4.55;;;;;;;8.74;52.13;100396.66;5037505;28;20486;-70
2023/03/22 08:47:59;;;;;;;10.27;4.32;;;;;;;8.18;53.27;100387.47;5038308;28;20051;-67
2023/03/22 08:50:28;;;;;;;8.05;4.57;;;;;;;8.22;53.24;100383.00;5037378;28;20032;-69
2023/03/22 08:53:04;;;;;;;8.20;3.80;;;;;;;8.54;52.18;100379.19;5035429;28;20068;-68
2023/03/22 08:56:02;;;;;;;12.45;4.45;;;;;;;8.14;52.81;100373.75;5036613;28;20445;-68
2023/03/22 08:58:57;;;;;;;9.27;3.95;;;;;;;8.58;52.12;100370.31;5043244;28;20529;-69
2023/03/22 09:01:40;;;;;;;8.40;4.32;;;;;;;8.68;52.27;100374.25;5042056;28;20464;-68
2023/03/22 09:04:09;;;;;;;7.88;4.00;;;;;;;7.99;53.39;100378.69;5046704;28;20119;-67
2023/03/22 09:06:43;;;;;;;8.48;4.10;;;;;;;8.30;52.42;100386.19;5051871;28;20028;-68
2023/03/22 09:09:14;;;;;;;12.15;3.53;;;;;;;8.35;52.83;100373.81;5008281;28;20044;-67
2023/03/22 09:11:41;;;;;;;15.80;3.60;;;;;;;8.94;51.13;100368.03;5037204;28;20038;-67
2023/03/22 09:14:08;;;;;;;5.78;3.10;;;;;;;8.06;52.99;100365.38;5053444;28;20048;-68
2023/03/22 09:16:48;;;;;;;8.70;2.95;;;;;;;8.59;51.32;100371.19;5042364;28;20032;-68
2023/03/22 09:19:19;;;;;;;6.78;2.70;;;;;;;8.96;51.43;100370.53;5039320;28;20051;-69
2023/03/22 09:21:46;;;;;;;6.47;2.85;;;;;;;8.79;51.57;100367.81;5053261;28;20042;-69
2023/03/22 09:24:30;;;;;;;8.52;3.45;;;;;;;9.55;49.75;100371.53;5006692;28;20048;-69
2023/03/22 09:26:59;;;;;;;6.13;2.63;;;;;;;9.32;50.27;100347.31;5025170;28;20032;-67
2023/03/22 09:29:29;;;;;;;8.48;2.90;;;;;;;9.39;49.78;100356.56;5015692;28;20401;-69
2023/03/22 09:31:58;;;;;;;13.80;3.95;;;;;;;8.74;51.16;100366.22;5036789;28;20036;-68
2023/03/22 09:34:38;;;;;;;7.80;2.65;;;;;;;8.71;51.09;100357.69;5051664;28;20044;-67
2023/03/22 09:37:11;;;;;;;5.90;2.40;;;;;;;9.11;50.20;100343.84;5030991;28;20066;-67
2023/03/22 09:39:59;;;;;;;3.75;2.17;;;;;;;8.97;50.84;100349.63;5033047;28;20504;-66
2023/03/22 09:42:39;;;;;;;10.75;2.35;;;;;;;8.12;51.82;100352.13;5035008;28;20080;-69
2023/03/22 09:45:12;;;;;;;10.38;3.38;;;;;;;9.16;49.19;100346.25;5032745;28;20067;-67
2023/03/22 09:47:43;;;;;;;11.25;2.70;;;;;;;9.06;50.45;100352.78;5019067;28;20039;-67
2023/03/22 09:50:17;;;;;;;9.38;2.30;;;;;;;8.67;51.21;100343.03;5052408;28;20024;-67
2023/03/22 09:52:54;;;;;;;5.03;1.92;;;;;;;9.01;50.34;100331.25;5051766;28;20556;-68
2023/03/22 09:55:38;;;;;;;5.38;2.42;;;;;;;9.16;50.08;100338.44;5052700;28;20031;-68
2023/03/22 09:58:17;;;;;;;5.85;2.40;;;;;;;8.29;51.93;100320.25;5040843;28;20592;-69
2023/03/22 10:00:51;;;;;;;2.92;2.15;;;;;;;9.09;50.10;100324.81;5051758;28;20036;-68
2023/03/22 10:03:44;;;;;;;6.95;1.73;;;;;;;8.62;51.19;100318.94;5048560;28;20040;-69
2023/03/22 10:06:21;;;;;;;5.93;2.50;;;;;;;8.77;50.72;100332.22;5053003;28;20028;-68
2023/03/22 10:08:58;;;;;;;6.22;1.50;;;;;;;9.44;49.24;100326.81;5037329;28;20055;-68
2023/03/22 10:11:31;;;;;;;5.78;1.75;;;;;;;9.15;49.89;100328.94;5052083;28;20372;-68
2023/03/22 10:14:04;;;;;;;9.02;2.10;;;;;;;8.19;52.27;100350.13;5051915;28;20054;-68
2023/03/22 10:16:34;;;;;;;5.78;1.52;;;;;;;9.24;49.83;100344.19;5050315;28;20588;-67
2023/03/22 10:19:21;;;;;;;6.05;1.55;;;;;;;8.65;50.43;100363.09;5052723;28;20036;-66
2023/03/22 10:21:50;;;;;;;9.18;2.15;;;;;;;8.61;51.21;100351.13;5044577;28;20082;-68
2023/03/22 10:24:22;;;;;;;7.53;2.10;;;;;;;8.70;50.77;100353.34;5044111;28;20512;-67
2023/03/22 10:26:52;;;;;;;12.45;2.30;;;;;;;9.15;50.10;100347.19;5049723;28;20041;-68
2023/03/22 10:29:22;;;;;;;5.90;2.03;;;;;;;8.38;51.49;100332.03;5050619;28;20464;-69
2023/03/22 10:31:56;;;;;;;8.50;2.10;;;;;;;7.87;52.57;100335.72;5050865;28;20548;-66
2023/03/22 10:34:32;;;;;;;6.57;2.30;;;;;;;9.17;49.62;100338.38;5028508;28;20416;-68
2023/03/22 10:37:07;;;;;;;8.10;2.47;;;;;;;9.01;50.11;100341.69;5050064;28;20043;-66
2023/03/22 10:39:48;;;;;;;7.45;2.33;;;;;;;8.84;51.02;100340.63;5047863;28;20044;-66
2023/03/22 10:42:22;;;;;;;7.80;3.35;;;;;;;8.59;50.46;100342.53;5038596;28;20066;-66
2023/03/22 10:45:01;;;;;;;4.75;2.10;;;;;;;9.01;49.53;100337.34;5048443;28;20771;-67
2023/03/22 10:47:41;;;;;;;6.40;1.63;;;;;;;9.54;48.29;100331.56;5049686;28;20516;-66
2023/03/22 10:50:28;;;;;;;8.23;1.85;;;;;;;9.02;49.89;100335.56;5056043;28;20028;-67
2023/03/22 10:53:25;;;;;;;4.90;1.52;;;;;;;8.94;49.79;100334.13;5054473;28;20301;-66
2023/03/22 10:55:52;;;;;;;5.55;1.25;;;;;;;8.35;51.13;100345.19;5053045;28;20044;-67
2023/03/22 10:58:22;;;;;;;3.80;1.67;;;;;;;8.32;51.42;100345.31;5020783;28;20044;-69
2023/03/22 11:01:06;;;;;;;3.40;1.83;;;;;;;8.65;51.52;100344.84;5045591;28;20298;-67
2023/03/22 11:03:37;;;;;;;4.28;1.48;;;;;;;8.26;53.01;100353.34;5039660;28;20457;-66
2023/03/22 11:06:13;;;;;;;5.68;1.80;;;;;;;9.02;51.57;100338.19;5052243;28;20064;-69
2023/03/22 11:08:45;;;;;;;4.85;1.52;;;;;;;8.08;53.65;100344.50;5040809;28;20097;-65
2023/03/22 11:12:16;;;;;;;5.78;1.48;;;;;;;7.54;55.62;100354.25;5049888;28;20377;-69
2023/03/22 11:14:49;;;;;;;8.68;1.73;;;;;;;7.47;55.81;100350.16;4961468;28;20154;-67
2023/03/22 11:17:24;;;;;;;10.48;2.17;;;;;;;8.23;54.34;100361.28;5030929;28;20029;-66
2023/03/22 11:20:15;;;;;;;7.25;1.98;;;;;;;7.96;55.29;100356.22;5029868;28;20045;-66
2023/03/22 11:22:49;;;;;;;7.43;2.83;;;;;;;7.88;55.96;100361.69;4998914;28;20051;-66
2023/03/22 11:25:16;;;;;;;8.35;2.10;;;;;;;7.31;56.80;100371.50;5053296;28;20117;-65
2023/03/22 11:28:02;;;;;;;9.65;1.70;;;;;;;8.07;55.48;100364.47;5016118;28;20517;-67
2023/03/22 11:30:45;;;;;;;7.38;2.20;;;;;;;7.20;57.24;100371.00;5052333;28;20031;-68
2023/03/22 11:33:23;;;;;;;10.18;2.65;;;;;;;7.24;58.56;100369.97;5047215;28;20045;-67
2023/03/22 11:35:55;;;;;;;7.00;3.38;;;;;;;7.87;56.09;100377.34;5052491;28;20075;-67
2023/03/22 11:38:34;;;;;;;15.27;2.30;;;;;;;7.54;57.08;100372.44;5049692;28;20036;-68
2023/03/22 11:41:08;;;;;;;4.22;1.33;;;;;;;7.56;57.27;100373.28;5058596;28;20094;-67
2023/03/22 11:43:39;;;;;;;6.57;2.08;;;;;;;8.03;56.17;100375.06;5054543;28;20085;-65
2023/03/22 11:46:12;;;;;;;8.93;2.50;;;;;;;7.83;56.38;100370.59;5041544;28;20531;-68
2023/03/22 11:48:43;;;;;;;7.63;2.15;;;;;;;7.65;56.58;100365.13;5053674;28;20469;-66
2023/03/22 11:51:12;;;;;;;9.30;2.45;;;;;;;7.76;56.64;100361.28;5057549;28;20045;-68
2023/03/22 11:53:47;;;;;;;4.53;2.20;;;;;;;7.00;59.46;100360.41;5051964;28;20063;-68
2023/03/22 11:56:32;;;;;;;9.10;2.30;;;;;;;7.01;59.44;100380.31;5053875;28;20090;-66
2023/03/22 11:59:13;;;;;;;7.50;2.28;;;;;;;7.15;59.07;100379.84;5055425;28;20512;-66
2023/03/22 12:02:25;;;;;;;3.78;2.15;;;;;;;7.70;58.86;100367.56;5057916;28;20032;-67
2023/03/22 12:05:06;;;;;;;4.07;2.33;;;;;;;7.49;59.21;100367.41;5036447;28;20844;-65
2023/03/22 12:07:40;;;;;;;6.00;1.92;;;;;;;7.49;58.28;100362.22;5031789;28;20068;-65
2023/03/22 12:10:52;;;;;;;10.75;2.83;;;;;;;7.82;58.03;100361.06;5048554;28;20113;-66
2023/03/22 12:13:25;;;;;;;6.38;2.70;;;;;;;7.00;60.75;100358.69;5044849;28;21808;-66
2023/03/22 12:15:59;;;;;;;5.65;2.85;;;;;;;6.96;60.13;100359.69;5056991;28;20040;-64
2023/03/22 12:18:33;;;;;;;6.45;2.28;;;;;;;7.73;58.03;100355.31;5040822;28;20143;-67